sensor_id;sensor_type;location;lat;lon;timestamp;pressure;altitude;pressure_sealevel;temperature;humidity
64844;BME280;51310;52.198;5.422;2023-07-16T00:01:52;100616.75;;;17.15;59.56
64844;BME280;51310;52.198;5.422;2023-07-16T00:04:18;100643.59;;;17.26;59.46
64844;BME280;51310;52.198;5.422;2023-07-16T00:06:44;100618.03;;;17.11;59.43
64844;BME280;51310;52.198;5.422;2023-07-16T00:09:10;100623.16;;;17.14;59.11
64844;BME280;51310;52.198;5.422;2023-07-16T00:11:35;100635.78;;;17.23;59.11
64844;BME280;51310;52.198;5.422;2023-07-16T00:14:01;100636.34;;;17.27;59.03
64844;BME280;51310;52.198;5.422;2023-07-16T00:16:28;100616.31;;;17.10;59.04
64844;BME280;51310;52.198;5.422;2023-07-16T00:18:54;100638.47;;;17.23;58.77
64844;BME280;51310;52.198;5.422;2023-07-16T00:21:20;100620.44;;;17.14;58.57
64844;BME280;51310;52.198;5.422;2023-07-16T00:23:46;100628.81;;;17.21;58.29
64844;BME280;51310;52.198;5.422;2023-07-16T00:26:13;100633.22;;;17.22;58.77
64844;BME280;51310;52.198;5.422;2023-07-16T00:28:39;100637.47;;;17.24;58.61
64844;BME280;51310;52.198;5.422;2023-07-16T00:31:05;100632.34;;;17.31;57.97
64844;BME280;51310;52.198;5.422;2023-07-16T00:33:31;100625.13;;;17.22;57.77
64844;BME280;51310;52.198;5.422;2023-07-16T00:35:57;100639.59;;;17.31;58.06
64844;BME280;51310;52.198;5.422;2023-07-16T00:38:23;100614.22;;;17.14;57.98
64844;BME280;51310;52.198;5.422;2023-07-16T00:40:49;100637.19;;;17.27;57.92
64844;BME280;51310;52.198;5.422;2023-07-16T00:43:15;100645.56;;;17.24;57.89
64844;BME280;51310;52.198;5.422;2023-07-16T00:45:42;100650.97;;;17.24;58.38
64844;BME280;51310;52.198;5.422;2023-07-16T00:48:11;100633.53;;;17.09;58.30
64844;BME280;51310;52.198;5.422;2023-07-16T00:50:39;100642.75;;;17.16;58.50
64844;BME280;51310;52.198;5.422;2023-07-16T00:53:06;100638.66;;;17.02;58.28
64844;BME280;51310;52.198;5.422;2023-07-16T00:55:37;100648.16;;;17.06;58.60
64844;BME280;51310;52.198;5.422;2023-07-16T00:58:06;100636.66;;;16.95;58.66
64844;BME280;51310;52.198;5.422;2023-07-16T01:00:37;100642.78;;;16.97;58.79
64844;BME280;51310;52.198;5.422;2023-07-16T01:03:09;100655.13;;;16.99;58.98
64844;BME280;51310;52.198;5.422;2023-07-16T01:06:00;100662.38;;;16.99;59.06
64844;BME280;51310;52.198;5.422;2023-07-16T01:08:53;100646.47;;;16.96;58.85
64844;BME280;51310;52.198;5.422;2023-07-16T01:11:22;100653.28;;;17.00;59.14
64844;BME280;51310;52.198;5.422;2023-07-16T01:13:50;100648.47;;;16.94;59.25
64844;BME280;51310;52.198;5.422;2023-07-16T01:16:23;100658.56;;;16.92;59.47
64844;BME280;51310;52.198;5.422;2023-07-16T01:18:51;100657.13;;;16.88;59.55
64844;BME280;51310;52.198;5.422;2023-07-16T01:21:21;100656.13;;;16.89;59.75
64844;BME280;51310;52.198;5.422;2023-07-16T01:27:27;100650.16;;;16.95;59.79
64844;BME280;51310;52.198;5.422;2023-07-16T01:30:04;100649.59;;;16.91;59.58
64844;BME280;51310;52.198;5.422;2023-07-16T01:32:36;100647.88;;;16.90;59.71
64844;BME280;51310;52.198;5.422;2023-07-16T01:35:05;100638.22;;;16.88;59.74
64844;BME280;51310;52.198;5.422;2023-07-16T01:37:32;100641.06;;;16.86;59.91
64844;BME280;51310;52.198;5.422;2023-07-16T01:39:58;100643.06;;;16.94;59.87
64844;BME280;51310;52.198;5.422;2023-07-16T01:42:24;100631.16;;;16.87;59.60
64844;BME280;51310;52.198;5.422;2023-07-16T01:44:50;100625.56;;;16.78;59.92
64844;BME280;51310;52.198;5.422;2023-07-16T01:47:31;100650.44;;;16.92;60.14
64844;BME280;51310;52.198;5.422;2023-07-16T01:50:03;100645.06;;;16.92;60.11
64844;BME280;51310;52.198;5.422;2023-07-16T01:52:29;100625.69;;;16.77;60.05
64844;BME280;51310;52.198;5.422;2023-07-16T01:54:55;100646.31;;;16.88;60.21
64844;BME280;51310;52.198;5.422;2023-07-16T01:57:21;100622.72;;;16.70;60.47
64844;BME280;51310;52.198;5.422;2023-07-16T01:59:46;100646.16;;;16.79;60.59
64844;BME280;51310;52.198;5.422;2023-07-16T02:02:12;100647.59;;;16.83;60.31
64844;BME280;51310;52.198;5.422;2023-07-16T02:04:38;100650.03;;;16.87;60.34
64844;BME280;51310;52.198;5.422;2023-07-16T02:07:04;100654.44;;;16.88;60.62
64844;BME280;51310;52.198;5.422;2023-07-16T02:09:30;100645.91;;;16.82;60.65
64844;BME280;51310;52.198;5.422;2023-07-16T02:11:56;100654.97;;;16.81;60.63
64844;BME280;51310;52.198;5.422;2023-07-16T02:14:23;100631.81;;;16.69;61.07
64844;BME280;51310;52.198;5.422;2023-07-16T02:16:49;100652.84;;;16.75;61.17
64844;BME280;51310;52.198;5.422;2023-07-16T02:19:15;100641.59;;;16.70;61.22
64844;BME280;51310;52.198;5.422;2023-07-16T02:21:41;100654.28;;;16.79;61.32
64844;BME280;51310;52.198;5.422;2023-07-16T02:24:07;100650.41;;;16.72;61.29
64844;BME280;51310;52.198;5.422;2023-07-16T02:26:32;100646.00;;;16.71;61.51
64844;BME280;51310;52.198;5.422;2023-07-16T02:28:58;100652.53;;;16.78;61.56
64844;BME280;51310;52.198;5.422;2023-07-16T02:31:25;100627.97;;;16.62;61.77
64844;BME280;51310;52.198;5.422;2023-07-16T02:33:50;100628.53;;;16.56;62.14
64844;BME280;51310;52.198;5.422;2023-07-16T02:36:16;100651.97;;;16.65;62.27
64844;BME280;51310;52.198;5.422;2023-07-16T02:38:42;100653.94;;;16.73;62.03
64844;BME280;51310;52.198;5.422;2023-07-16T02:41:08;100652.69;;;16.67;62.21
64844;BME280;51310;52.198;5.422;2023-07-16T02:43:34;100647.16;;;16.69;62.60
64844;BME280;51310;52.198;5.422;2023-07-16T02:46:00;100646.69;;;16.63;62.70
64844;BME280;51310;52.198;5.422;2023-07-16T02:48:26;100635.47;;;16.58;62.51
64844;BME280;51310;52.198;5.422;2023-07-16T02:50:52;100645.31;;;16.69;62.55
64844;BME280;51310;52.198;5.422;2023-07-16T02:53:18;100662.63;;;16.76;62.55
64844;BME280;51310;52.198;5.422;2023-07-16T02:55:45;100669.44;;;16.71;62.93
64844;BME280;51310;52.198;5.422;2023-07-16T02:58:12;100641.59;;;16.51;63.15
64844;BME280;51310;52.198;5.422;2023-07-16T03:00:38;100664.56;;;16.55;63.55
64844;BME280;51310;52.198;5.422;2023-07-16T03:03:04;100662.34;;;16.60;63.02
64844;BME280;51310;52.198;5.422;2023-07-16T03:05:30;100661.63;;;16.58;63.37
64844;BME280;51310;52.198;5.422;2023-07-16T03:07:56;100665.28;;;16.57;63.40
64844;BME280;51310;52.198;5.422;2023-07-16T03:10:22;100666.84;;;16.50;63.77
64844;BME280;51310;52.198;5.422;2023-07-16T03:12:48;100667.41;;;16.43;63.83
64844;BME280;51310;52.198;5.422;2023-07-16T03:15:14;100656.03;;;16.30;63.99
64844;BME280;51310;52.198;5.422;2023-07-16T03:17:40;100660.56;;;16.30;64.17
64844;BME280;51310;52.198;5.422;2023-07-16T03:20:07;100661.44;;;16.30;64.28
64844;BME280;51310;52.198;5.422;2023-07-16T03:22:33;100668.50;;;16.31;64.09
64844;BME280;51310;52.198;5.422;2023-07-16T03:24:59;100675.59;;;16.32;64.17
64844;BME280;51310;52.198;5.422;2023-07-16T03:27:25;100658.28;;;16.25;64.32
64844;BME280;51310;52.198;5.422;2023-07-16T03:29:51;100645.22;;;16.20;64.09
64844;BME280;51310;52.198;5.422;2023-07-16T03:32:17;100665.09;;;16.29;64.22
64844;BME280;51310;52.198;5.422;2023-07-16T03:34:43;100669.94;;;16.35;63.83
64844;BME280;51310;52.198;5.422;2023-07-16T03:37:08;100660.97;;;16.25;64.03
64844;BME280;51310;52.198;5.422;2023-07-16T03:39:35;100669.38;;;16.32;64.08
64844;BME280;51310;52.198;5.422;2023-07-16T03:42:00;100666.09;;;16.28;64.11
64844;BME280;51310;52.198;5.422;2023-07-16T03:44:26;100648.31;;;16.16;63.99
64844;BME280;51310;52.198;5.422;2023-07-16T03:46:54;100655.69;;;16.14;64.26
64844;BME280;51310;52.198;5.422;2023-07-16T03:49:20;100687.69;;;16.28;64.38
64844;BME280;51310;52.198;5.422;2023-07-16T03:51:45;100694.75;;;16.29;64.43
64844;BME280;51310;52.198;5.422;2023-07-16T03:54:11;100689.78;;;16.24;64.32
64844;BME280;51310;52.198;5.422;2023-07-16T03:56:37;100697.47;;;16.29;64.10
64844;BME280;51310;52.198;5.422;2023-07-16T03:59:03;100701.19;;;16.38;63.69
64844;BME280;51310;52.198;5.422;2023-07-16T04:01:29;100681.28;;;16.29;63.47
64844;BME280;51310;52.198;5.422;2023-07-16T04:03:55;100690.09;;;16.31;63.44
64844;BME280;51310;52.198;5.422;2023-07-16T04:06:21;100711.13;;;16.37;63.49
64844;BME280;51310;52.198;5.422;2023-07-16T04:08:47;100708.03;;;16.52;62.93
64844;BME280;51310;52.198;5.422;2023-07-16T04:11:13;100712.16;;;16.56;62.92
64844;BME280;51310;52.198;5.422;2023-07-16T04:13:39;100713.41;;;16.52;62.70
64844;BME280;51310;52.198;5.422;2023-07-16T04:16:05;100719.41;;;16.55;62.55
64844;BME280;51310;52.198;5.422;2023-07-16T04:18:31;100694.53;;;16.52;62.88
64844;BME280;51310;52.198;5.422;2023-07-16T04:20:56;100702.22;;;16.56;62.80
64844;BME280;51310;52.198;5.422;2023-07-16T04:23:22;100729.19;;;16.66;62.86
64844;BME280;51310;52.198;5.422;2023-07-16T04:25:53;100717.25;;;16.59;62.81
64844;BME280;51310;52.198;5.422;2023-07-16T04:28:20;100722.25;;;16.63;62.72
64844;BME280;51310;52.198;5.422;2023-07-16T04:30:46;100719.72;;;16.62;62.73
64844;BME280;51310;52.198;5.422;2023-07-16T04:33:12;100719.72;;;16.62;62.79
64844;BME280;51310;52.198;5.422;2023-07-16T04:35:38;100702.63;;;16.52;63.11
64844;BME280;51310;52.198;5.422;2023-07-16T04:38:04;100734.75;;;16.64;62.78
64844;BME280;51310;52.198;5.422;2023-07-16T04:40:30;100743.41;;;16.68;62.80
64844;BME280;51310;52.198;5.422;2023-07-16T04:42:57;100737.75;;;16.71;62.71
64844;BME280;51310;52.198;5.422;2023-07-16T04:45:23;100743.00;;;16.73;62.55
64844;BME280;51310;52.198;5.422;2023-07-16T04:47:48;100758.41;;;16.82;62.56
64844;BME280;51310;52.198;5.422;2023-07-16T04:50:14;100745.91;;;16.81;62.26
64844;BME280;51310;52.198;5.422;2023-07-16T04:52:40;100753.16;;;16.90;62.21
64844;BME280;51310;52.198;5.422;2023-07-16T04:55:06;100758.00;;;16.96;61.89
64844;BME280;51310;52.198;5.422;2023-07-16T04:57:33;100731.28;;;16.93;61.31
64844;BME280;51310;52.198;5.422;2023-07-16T04:59:59;100748.63;;;17.10;60.71
64844;BME280;51310;52.198;5.422;2023-07-16T05:02:25;100753.59;;;17.24;60.87
64844;BME280;51310;52.198;5.422;2023-07-16T05:04:51;100764.00;;;17.39;60.09
64844;BME280;51310;52.198;5.422;2023-07-16T05:07:17;100758.72;;;17.47;60.42
64844;BME280;51310;52.198;5.422;2023-07-16T05:09:43;100754.31;;;17.65;59.59
64844;BME280;51310;52.198;5.422;2023-07-16T05:12:09;100739.03;;;17.74;58.81
64844;BME280;51310;52.198;5.422;2023-07-16T05:14:47;100734.91;;;17.80;58.31
64844;BME280;51310;52.198;5.422;2023-07-16T05:17:14;100754.22;;;18.04;58.06
64844;BME280;51310;52.198;5.422;2023-07-16T05:19:40;100754.34;;;18.13;57.77
64844;BME280;51310;52.198;5.422;2023-07-16T05:22:07;100749.44;;;18.26;56.96
64844;BME280;51310;52.198;5.422;2023-07-16T05:24:33;100752.13;;;18.36;56.87
64844;BME280;51310;52.198;5.422;2023-07-16T05:26:59;100760.19;;;18.45;56.46
64844;BME280;51310;52.198;5.422;2023-07-16T05:29:27;100752.78;;;18.47;56.10
64844;BME280;51310;52.198;5.422;2023-07-16T05:31:52;100738.69;;;18.44;56.20
64844;BME280;51310;52.198;5.422;2023-07-16T05:34:18;100770.91;;;18.65;55.46
64844;BME280;51310;52.198;5.422;2023-07-16T05:36:44;100763.19;;;18.70;55.34
64844;BME280;51310;52.198;5.422;2023-07-16T05:39:10;100776.88;;;18.78;54.93
64844;BME280;51310;52.198;5.422;2023-07-16T05:41:40;100778.41;;;18.81;55.06
64844;BME280;51310;52.198;5.422;2023-07-16T05:44:06;100783.50;;;18.84;54.48
64844;BME280;51310;52.198;5.422;2023-07-16T05:46:34;100785.47;;;18.91;54.41
64844;BME280;51310;52.198;5.422;2023-07-16T05:48:59;100775.50;;;18.92;54.25
64844;BME280;51310;52.198;5.422;2023-07-16T05:51:26;100780.97;;;19.00;54.08
64844;BME280;51310;52.198;5.422;2023-07-16T05:53:52;100763.34;;;18.96;53.47
64844;BME280;51310;52.198;5.422;2023-07-16T05:56:18;100803.28;;;19.12;53.31
64844;BME280;51310;52.198;5.422;2023-07-16T05:58:44;100805.69;;;19.15;53.61
64844;BME280;51310;52.198;5.422;2023-07-16T06:01:09;100805.38;;;19.18;53.60
64844;BME280;51310;52.198;5.422;2023-07-16T06:03:35;100811.25;;;19.31;53.18
64844;BME280;51310;52.198;5.422;2023-07-16T06:06:01;100776.34;;;19.10;53.19
64844;BME280;51310;52.198;5.422;2023-07-16T06:08:28;100788.59;;;19.14;53.15
64844;BME280;51310;52.198;5.422;2023-07-16T06:10:54;100804.47;;;19.27;53.66
64844;BME280;51310;52.198;5.422;2023-07-16T06:13:19;100808.66;;;19.40;53.60
64844;BME280;51310;52.198;5.422;2023-07-16T06:15:47;100793.16;;;19.14;53.69
64844;BME280;51310;52.198;5.422;2023-07-16T06:18:13;100823.22;;;19.39;53.64
64844;BME280;51310;52.198;5.422;2023-07-16T06:20:44;100810.09;;;19.34;53.42
64844;BME280;51310;52.198;5.422;2023-07-16T06:23:13;100799.25;;;19.16;53.74
64844;BME280;51310;52.198;5.422;2023-07-16T06:25:42;100823.22;;;19.39;53.67
64844;BME280;51310;52.198;5.422;2023-07-16T06:28:12;100822.97;;;19.50;53.69
64844;BME280;51310;52.198;5.422;2023-07-16T06:30:39;100822.56;;;19.45;53.55
64844;BME280;51310;52.198;5.422;2023-07-16T06:33:05;100797.56;;;19.15;53.67
64844;BME280;51310;52.198;5.422;2023-07-16T06:35:31;100831.56;;;19.45;54.06
64844;BME280;51310;52.198;5.422;2023-07-16T06:37:57;100828.63;;;19.39;53.88
64844;BME280;51310;52.198;5.422;2023-07-16T06:40:24;100835.38;;;19.52;53.81
64844;BME280;51310;52.198;5.422;2023-07-16T06:42:50;100820.31;;;19.58;53.80
64844;BME280;51310;52.198;5.422;2023-07-16T06:45:20;100825.00;;;19.48;54.08
64844;BME280;51310;52.198;5.422;2023-07-16T06:47:46;100820.94;;;19.52;54.35
64844;BME280;51310;52.198;5.422;2023-07-16T06:50:12;100826.38;;;19.52;54.39
64844;BME280;51310;52.198;5.422;2023-07-16T06:52:38;100823.59;;;19.26;54.06
64844;BME280;51310;52.198;5.422;2023-07-16T06:55:04;100813.34;;;19.20;54.38
64844;BME280;51310;52.198;5.422;2023-07-16T06:57:30;100836.34;;;19.33;54.48
64844;BME280;51310;52.198;5.422;2023-07-16T06:59:56;100846.50;;;19.31;54.95
64844;BME280;51310;52.198;5.422;2023-07-16T07:02:22;100845.50;;;19.32;55.39
64844;BME280;51310;52.198;5.422;2023-07-16T07:04:48;100846.59;;;19.40;56.65
64844;BME280;51310;52.198;5.422;2023-07-16T07:07:14;100857.56;;;19.38;55.79
64844;BME280;51310;52.198;5.422;2023-07-16T07:09:40;100856.03;;;19.35;54.65
64844;BME280;51310;52.198;5.422;2023-07-16T07:12:06;100850.00;;;19.42;55.67
64844;BME280;51310;52.198;5.422;2023-07-16T07:14:33;100849.75;;;19.35;55.07
64844;BME280;51310;52.198;5.422;2023-07-16T07:16:59;100864.06;;;19.63;54.91
64844;BME280;51310;52.198;5.422;2023-07-16T07:19:26;100867.47;;;19.65;54.86
64844;BME280;51310;52.198;5.422;2023-07-16T07:21:52;100876.16;;;19.51;54.73
64844;BME280;51310;52.198;5.422;2023-07-16T07:24:18;100880.19;;;19.47;55.30
64844;BME280;51310;52.198;5.422;2023-07-16T07:26:44;100856.41;;;19.41;55.19
64844;BME280;51310;52.198;5.422;2023-07-16T07:29:10;100880.97;;;19.57;54.88
64844;BME280;51310;52.198;5.422;2023-07-16T07:31:36;100891.19;;;19.63;55.01
64844;BME280;51310;52.198;5.422;2023-07-16T07:34:02;100885.47;;;19.66;54.50
64844;BME280;51310;52.198;5.422;2023-07-16T07:36:28;100882.94;;;19.83;54.35
64844;BME280;51310;52.198;5.422;2023-07-16T07:38:54;100895.31;;;20.03;53.94
64844;BME280;51310;52.198;5.422;2023-07-16T07:41:20;100883.88;;;19.73;54.03
64844;BME280;51310;52.198;5.422;2023-07-16T07:43:46;100916.56;;;19.90;53.50
64844;BME280;51310;52.198;5.422;2023-07-16T07:46:12;100913.94;;;19.80;54.16
64844;BME280;51310;52.198;5.422;2023-07-16T07:48:38;100900.53;;;19.79;55.10
64844;BME280;51310;52.198;5.422;2023-07-16T07:51:04;100909.34;;;19.81;54.34
64844;BME280;51310;52.198;5.422;2023-07-16T07:53:30;100909.69;;;19.78;55.50
64844;BME280;51310;52.198;5.422;2023-07-16T07:55:57;100896.09;;;19.60;55.10
64844;BME280;51310;52.198;5.422;2023-07-16T07:58:23;100910.63;;;19.59;55.20
64844;BME280;51310;52.198;5.422;2023-07-16T08:00:49;100923.78;;;19.53;56.12
64844;BME280;51310;52.198;5.422;2023-07-16T08:03:15;100908.22;;;19.38;55.83
64844;BME280;51310;52.198;5.422;2023-07-16T08:05:40;100914.50;;;19.56;55.75
64844;BME280;51310;52.198;5.422;2023-07-16T08:08:06;100916.59;;;19.62;56.00
64844;BME280;51310;52.198;5.422;2023-07-16T08:10:33;100916.03;;;19.86;54.93
64844;BME280;51310;52.198;5.422;2023-07-16T08:12:59;100929.25;;;20.07;54.32
64844;BME280;51310;52.198;5.422;2023-07-16T08:15:25;100913.75;;;20.17;54.01
64844;BME280;51310;52.198;5.422;2023-07-16T08:17:51;100911.00;;;20.35;53.64
64844;BME280;51310;52.198;5.422;2023-07-16T08:20:17;100934.06;;;20.57;53.35
64844;BME280;51310;52.198;5.422;2023-07-16T08:22:42;100911.84;;;20.36;53.28
64844;BME280;51310;52.198;5.422;2023-07-16T08:25:09;100930.66;;;20.82;53.13
64844;BME280;51310;52.198;5.422;2023-07-16T08:27:35;100939.84;;;20.81;52.89
64844;BME280;51310;52.198;5.422;2023-07-16T08:30:01;100902.72;;;20.19;53.20
64844;BME280;51310;52.198;5.422;2023-07-16T08:32:27;100930.53;;;20.39;53.34
64844;BME280;51310;52.198;5.422;2023-07-16T08:34:52;100926.66;;;20.42;53.39
64844;BME280;51310;52.198;5.422;2023-07-16T08:37:18;100908.88;;;20.47;53.54
64844;BME280;51310;52.198;5.422;2023-07-16T08:39:44;100923.84;;;20.51;53.13
64844;BME280;51310;52.198;5.422;2023-07-16T08:42:10;100934.97;;;20.58;53.13
64844;BME280;51310;52.198;5.422;2023-07-16T08:44:37;100935.25;;;20.37;53.25
64844;BME280;51310;52.198;5.422;2023-07-16T08:47:05;100952.56;;;20.36;53.38
64844;BME280;51310;52.198;5.422;2023-07-16T08:49:34;100944.28;;;20.20;53.96
64844;BME280;51310;52.198;5.422;2023-07-16T08:52:02;100953.59;;;19.99;54.63
64844;BME280;51310;52.198;5.422;2023-07-16T08:54:28;100949.56;;;19.85;55.32
64844;BME280;51310;52.198;5.422;2023-07-16T08:56:54;100923.94;;;19.80;54.88
64844;BME280;51310;52.198;5.422;2023-07-16T08:59:21;100956.72;;;20.04;54.82
64844;BME280;51310;52.198;5.422;2023-07-16T09:01:48;100953.81;;;20.24;54.42
64844;BME280;51310;52.198;5.422;2023-07-16T09:04:16;100954.69;;;20.50;54.12
64844;BME280;51310;52.198;5.422;2023-07-16T09:06:43;100951.28;;;20.48;54.07
64844;BME280;51310;52.198;5.422;2023-07-16T09:09:21;100949.84;;;20.36;53.70
64844;BME280;51310;52.198;5.422;2023-07-16T09:11:48;100956.41;;;20.51;53.75
64844;BME280;51310;52.198;5.422;2023-07-16T09:14:21;100965.34;;;20.44;53.71
64844;BME280;51310;52.198;5.422;2023-07-16T09:16:51;100996.38;;;20.41;54.09
64844;BME280;51310;52.198;5.422;2023-07-16T09:19:18;100987.44;;;20.31;53.65
64844;BME280;51310;52.198;5.422;2023-07-16T09:21:49;100993.88;;;20.48;53.80
64844;BME280;51310;52.198;5.422;2023-07-16T09:24:16;100985.03;;;20.64;52.77
64844;BME280;51310;52.198;5.422;2023-07-16T09:26:54;100988.81;;;20.53;53.80
64844;BME280;51310;52.198;5.422;2023-07-16T09:29:25;100980.38;;;20.56;53.39
64844;BME280;51310;52.198;5.422;2023-07-16T09:32:02;100985.66;;;20.57;53.56
64844;BME280;51310;52.198;5.422;2023-07-16T09:34:29;100986.34;;;20.59;54.20
64844;BME280;51310;52.198;5.422;2023-07-16T09:36:57;101001.56;;;20.52;53.70
64844;BME280;51310;52.198;5.422;2023-07-16T09:39:26;100987.66;;;20.55;53.71
64844;BME280;51310;52.198;5.422;2023-07-16T09:41:52;101011.81;;;20.58;53.36
64844;BME280;51310;52.198;5.422;2023-07-16T09:44:19;101009.09;;;20.58;53.41
64844;BME280;51310;52.198;5.422;2023-07-16T09:46:46;101002.41;;;20.53;53.05
64844;BME280;51310;52.198;5.422;2023-07-16T09:49:15;100978.75;;;20.45;53.23
64844;BME280;51310;52.198;5.422;2023-07-16T09:51:43;101003.25;;;20.71;53.18
64844;BME280;51310;52.198;5.422;2023-07-16T09:54:13;101005.53;;;20.84;53.12
64844;BME280;51310;52.198;5.422;2023-07-16T09:56:49;101014.59;;;20.93;53.09
64844;BME280;51310;52.198;5.422;2023-07-16T09:59:24;101013.44;;;20.51;53.24
64844;BME280;51310;52.198;5.422;2023-07-16T10:01:52;100998.94;;;20.43;53.29
64844;BME280;51310;52.198;5.422;2023-07-16T10:04:21;101013.84;;;20.56;53.71
64844;BME280;51310;52.198;5.422;2023-07-16T10:06:59;101024.44;;;20.68;53.66
64844;BME280;51310;52.198;5.422;2023-07-16T10:09:40;101005.44;;;20.68;53.38
64844;BME280;51310;52.198;5.422;2023-07-16T10:14:43;101035.63;;;20.29;53.80
64844;BME280;51310;52.198;5.422;2023-07-16T10:17:24;101036.16;;;20.32;54.48
64844;BME280;51310;52.198;5.422;2023-07-16T10:20:11;101045.16;;;20.69;53.74
64844;BME280;51310;52.198;5.422;2023-07-16T10:22:46;101011.59;;;20.78;53.32
64844;BME280;51310;52.198;5.422;2023-07-16T10:27:49;101023.59;;;20.93;52.47
64844;BME280;51310;52.198;5.422;2023-07-16T10:30:17;101038.25;;;20.74;52.68
64844;BME280;51310;52.198;5.422;2023-07-16T10:32:44;101039.19;;;20.47;53.61
64844;BME280;51310;52.198;5.422;2023-07-16T10:35:11;101026.63;;;20.28;53.97
64844;BME280;51310;52.198;5.422;2023-07-16T10:37:38;101033.56;;;20.49;53.92
64844;BME280;51310;52.198;5.422;2023-07-16T10:40:09;101058.03;;;20.67;53.64
64844;BME280;51310;52.198;5.422;2023-07-16T10:42:37;101052.81;;;20.73;53.48
64844;BME280;51310;52.198;5.422;2023-07-16T10:45:06;101035.69;;;20.73;53.53
64844;BME280;51310;52.198;5.422;2023-07-16T10:47:35;101051.16;;;20.98;52.72
64844;BME280;51310;52.198;5.422;2023-07-16T10:50:08;101062.25;;;20.87;52.72
64844;BME280;51310;52.198;5.422;2023-07-16T10:52:36;101066.06;;;21.20;52.84
64844;BME280;51310;52.198;5.422;2023-07-16T10:55:03;101060.47;;;21.22;52.06
64844;BME280;51310;52.198;5.422;2023-07-16T10:57:30;101067.09;;;21.28;52.64
64844;BME280;51310;52.198;5.422;2023-07-16T10:59:58;101073.88;;;21.50;52.17
64844;BME280;51310;52.198;5.422;2023-07-16T11:02:25;101050.28;;;21.24;52.30
64844;BME280;51310;52.198;5.422;2023-07-16T11:04:52;101056.09;;;21.29;51.91
64844;BME280;51310;52.198;5.422;2023-07-16T11:07:20;101070.13;;;21.42;51.59
64844;BME280;51310;52.198;5.422;2023-07-16T11:09:55;101069.00;;;21.61;51.60
64844;BME280;51310;52.198;5.422;2023-07-16T11:12:23;101072.22;;;21.57;51.57
64844;BME280;51310;52.198;5.422;2023-07-16T11:14:55;101057.31;;;21.35;51.80
64844;BME280;51310;52.198;5.422;2023-07-16T11:17:24;101082.16;;;21.14;52.49
64844;BME280;51310;52.198;5.422;2023-07-16T11:19:52;101072.50;;;20.93;53.10
64844;BME280;51310;52.198;5.422;2023-07-16T11:22:19;101078.78;;;21.20;52.69
64844;BME280;51310;52.198;5.422;2023-07-16T11:24:50;101084.31;;;21.36;52.03
64844;BME280;51310;52.198;5.422;2023-07-16T11:27:25;101087.03;;;21.36;51.63
64844;BME280;51310;52.198;5.422;2023-07-16T11:29:56;101089.59;;;21.38;51.92
64844;BME280;51310;52.198;5.422;2023-07-16T11:32:34;101087.53;;;21.58;51.49
64844;BME280;51310;52.198;5.422;2023-07-16T11:35:05;101077.22;;;21.70;50.70
64844;BME280;51310;52.198;5.422;2023-07-16T11:37:35;101103.94;;;21.74;51.46
64844;BME280;51310;52.198;5.422;2023-07-16T11:40:05;101096.50;;;21.50;51.82
64844;BME280;51310;52.198;5.422;2023-07-16T11:42:40;101104.41;;;21.70;51.59
64844;BME280;51310;52.198;5.422;2023-07-16T11:45:22;101110.16;;;22.01;51.77
64844;BME280;51310;52.198;5.422;2023-07-16T11:47:54;101110.72;;;22.21;49.45
64844;BME280;51310;52.198;5.422;2023-07-16T11:50:20;101121.38;;;22.06;50.29
64844;BME280;51310;52.198;5.422;2023-07-16T11:52:54;101111.72;;;22.12;50.29
64844;BME280;51310;52.198;5.422;2023-07-16T11:55:26;101126.78;;;21.90;50.34
64844;BME280;51310;52.198;5.422;2023-07-16T11:57:52;101106.19;;;21.87;49.69
64844;BME280;51310;52.198;5.422;2023-07-16T12:00:19;101108.13;;;21.60;49.56
64844;BME280;51310;52.198;5.422;2023-07-16T12:02:45;101119.53;;;21.64;49.52
64844;BME280;51310;52.198;5.422;2023-07-16T12:05:22;101094.66;;;21.59;49.63
64844;BME280;51310;52.198;5.422;2023-07-16T12:07:53;101112.34;;;21.55;49.59
64844;BME280;51310;52.198;5.422;2023-07-16T12:10:19;101121.56;;;21.70;48.98
64844;BME280;51310;52.198;5.422;2023-07-16T12:12:46;101125.88;;;21.47;49.30
64844;BME280;51310;52.198;5.422;2023-07-16T12:15:12;101121.16;;;21.57;48.52
64844;BME280;51310;52.198;5.422;2023-07-16T12:17:38;101122.59;;;21.69;47.30
64844;BME280;51310;52.198;5.422;2023-07-16T12:20:04;101133.19;;;21.80;47.89
64844;BME280;51310;52.198;5.422;2023-07-16T12:22:31;101121.19;;;21.99;47.00
64844;BME280;51310;52.198;5.422;2023-07-16T12:24:57;101119.66;;;21.89;46.92
64844;BME280;51310;52.198;5.422;2023-07-16T12:27:23;101105.84;;;21.90;47.10
64844;BME280;51310;52.198;5.422;2023-07-16T12:29:49;101120.69;;;21.96;47.48
64844;BME280;51310;52.198;5.422;2023-07-16T12:32:15;101112.94;;;21.75;47.41
64844;BME280;51310;52.198;5.422;2023-07-16T12:34:41;101119.94;;;21.86;48.00
64844;BME280;51310;52.198;5.422;2023-07-16T12:37:07;101132.28;;;22.06;47.50
64844;BME280;51310;52.198;5.422;2023-07-16T12:39:33;101132.03;;;22.26;47.17
64844;BME280;51310;52.198;5.422;2023-07-16T12:41:59;101144.50;;;22.44;46.81
64844;BME280;51310;52.198;5.422;2023-07-16T12:44:25;101136.66;;;22.41;46.82
64844;BME280;51310;52.198;5.422;2023-07-16T12:46:51;101138.53;;;22.49;47.10
64844;BME280;51310;52.198;5.422;2023-07-16T12:49:17;101149.81;;;22.62;46.82
64844;BME280;51310;52.198;5.422;2023-07-16T12:51:43;101127.34;;;22.85;46.70
64844;BME280;51310;52.198;5.422;2023-07-16T12:54:09;101136.53;;;22.76;46.93
64844;BME280;51310;52.198;5.422;2023-07-16T12:56:35;101148.47;;;22.91;46.33
64844;BME280;51310;52.198;5.422;2023-07-16T12:59:01;101149.13;;;22.85;46.34
64844;BME280;51310;52.198;5.422;2023-07-16T13:01:27;101139.44;;;22.74;46.35